createdAt,value
2022-11-02T00:01:45.335Z,2.35
2022-11-02T00:04:12.433Z,2.38
2022-11-02T00:06:41.716Z,1.70
2022-11-02T00:09:08.892Z,2.60
2022-11-02T00:11:37.928Z,2.47
2022-11-02T00:14:05.124Z,1.75
2022-11-02T00:16:33.508Z,2.42
2022-11-02T00:19:03.840Z,1.48
2022-11-02T00:21:30.858Z,1.77
2022-11-02T00:23:59.049Z,1.75
2022-11-02T00:26:28.094Z,1.65
2022-11-02T00:28:55.763Z,2.08
2022-11-02T00:31:22.849Z,1.63
2022-11-02T00:33:50.356Z,1.67
2022-11-02T00:36:17.505Z,2.03
2022-11-02T00:38:44.510Z,2.05
2022-11-02T00:41:12.944Z,1.52
2022-11-02T00:43:39.926Z,1.90
2022-11-02T00:46:06.954Z,1.60
2022-11-02T00:48:34.123Z,2.03
2022-11-02T00:51:01.756Z,2.30
2022-11-02T00:53:30.137Z,1.90
2022-11-02T00:55:57.115Z,2.22
2022-11-02T00:58:24.471Z,2.28
2022-11-02T01:00:51.556Z,2.15
2022-11-02T01:03:18.847Z,2.15
2022-11-02T01:05:46.040Z,1.92
2022-11-02T01:08:13.234Z,2.05
2022-11-02T01:10:42.807Z,2.20
2022-11-02T01:13:14.118Z,1.70
2022-11-02T01:15:41.206Z,2.60
2022-11-02T01:18:08.135Z,1.60
2022-11-02T01:20:35.306Z,1.83
2022-11-02T01:23:02.486Z,2.13
2022-11-02T01:25:29.502Z,2.25
2022-11-02T01:27:56.649Z,2.25
2022-11-02T01:30:23.676Z,1.70
2022-11-02T01:32:50.768Z,1.80
2022-11-02T01:35:17.856Z,1.58
2022-11-02T01:37:44.901Z,2.25
2022-11-02T01:40:12.482Z,1.77
2022-11-02T01:42:39.591Z,1.67
2022-11-02T01:45:06.861Z,1.45
2022-11-02T01:47:38.621Z,1.75
2022-11-02T01:50:13.279Z,1.50
2022-11-02T01:52:41.539Z,1.52
2022-11-02T01:55:16.649Z,1.50
2022-11-02T01:57:50.324Z,2.03
2022-11-02T02:00:20.372Z,1.20
2022-11-02T02:03:05.662Z,1.42
2022-11-02T02:05:36.160Z,1.50
2022-11-02T02:08:04.415Z,1.13
2022-11-02T02:10:32.359Z,1.60
2022-11-02T02:12:59.447Z,1.42
2022-11-02T02:15:54.601Z,1.55
2022-11-02T02:19:02.358Z,1.65
2022-11-02T02:21:47.327Z,1.25
2022-11-02T02:24:44.992Z,1.55
2022-11-02T02:27:32.051Z,1.40
2022-11-02T02:30:09.821Z,1.48
2022-11-02T02:32:49.065Z,1.50
2022-11-02T02:35:27.154Z,1.77
2022-11-02T02:38:14.641Z,1.70
2022-11-02T02:40:49.832Z,1.20
2022-11-02T02:43:21.282Z,1.60
2022-11-02T02:45:55.473Z,2.43
2022-11-02T02:48:25.566Z,1.88
2022-11-02T02:51:07.513Z,1.75
2022-11-02T02:53:41.736Z,1.33
2022-11-02T02:56:10.987Z,1.17
2022-11-02T02:58:50.635Z,1.48
2022-11-02T03:01:19.908Z,1.80
2022-11-02T03:03:47.617Z,1.80
2022-11-02T03:06:20.693Z,1.77
2022-11-02T03:09:09.850Z,1.70
2022-11-02T03:11:48.388Z,2.33
2022-11-02T03:14:48.125Z,1.55
2022-11-02T03:17:24.906Z,2.08
2022-11-02T03:20:11.704Z,1.55
2022-11-02T03:23:10.368Z,1.38
2022-11-02T03:25:57.650Z,1.92
2022-11-02T03:28:49.294Z,1.70
2022-11-02T03:31:28.393Z,1.93
2022-11-02T03:34:16.790Z,2.20
2022-11-02T03:36:49.672Z,2.45
2022-11-02T03:39:46.400Z,1.90
2022-11-02T03:42:19.177Z,2.13
2022-11-02T03:44:53.102Z,1.67
2022-11-02T03:49:50.486Z,1.90
2022-11-02T03:52:23.530Z,1.58
2022-11-02T03:55:02.700Z,2.35
2022-11-02T03:57:46.933Z,2.42
2022-11-02T04:00:22.248Z,1.58
2022-11-02T04:03:00.385Z,2.53
2022-11-02T04:05:37.060Z,2.53
2022-11-02T04:08:39.125Z,1.45
2022-11-02T04:11:28.262Z,3.03
2022-11-02T04:14:18.966Z,1.98
2022-11-02T04:16:46.328Z,2.35
2022-11-02T04:19:29.792Z,2.03
2022-11-02T04:22:25.189Z,1.90
2022-11-02T04:25:15.883Z,2.10
2022-11-02T04:27:51.134Z,1.52
2022-11-02T04:30:24.348Z,1.95
2022-11-02T04:33:13.188Z,2.00
2022-11-02T04:35:52.035Z,1.80
2022-11-02T04:38:38.651Z,2.53
2022-11-02T04:41:25.477Z,2.03
2022-11-02T04:43:55.679Z,2.28
2022-11-02T04:46:24.599Z,1.77
2022-11-02T04:48:52.272Z,2.17
2022-11-02T04:51:20.631Z,2.00
2022-11-02T04:53:49.359Z,1.85
2022-11-02T04:56:17.726Z,1.98
2022-11-02T04:58:49.534Z,1.85
2022-11-02T05:01:17.586Z,2.70
2022-11-02T05:03:47.603Z,2.28
2022-11-02T05:06:15.850Z,1.80
2022-11-02T05:08:43.089Z,1.50
2022-11-02T05:11:11.803Z,2.28
2022-11-02T05:13:40.616Z,1.92
2022-11-02T05:16:11.571Z,2.00
2022-11-02T05:18:39.310Z,1.52
2022-11-02T05:21:06.418Z,2.58
2022-11-02T05:23:33.458Z,2.17
2022-11-02T05:26:07.124Z,2.03
2022-11-02T05:28:35.324Z,1.95
2022-11-02T05:31:04.638Z,1.73
2022-11-02T05:33:34.210Z,1.92
2022-11-02T05:36:09.305Z,2.28
2022-11-02T05:41:06.083Z,2.53
2022-11-02T05:43:36.673Z,1.75
2022-11-02T05:46:05.955Z,3.03
2022-11-02T05:48:33.482Z,3.03
2022-11-02T05:51:02.942Z,2.95
2022-11-02T05:53:37.440Z,2.28
2022-11-02T05:56:07.048Z,2.50
2022-11-02T05:58:34.616Z,2.45
2022-11-02T06:01:04.239Z,2.00
2022-11-02T06:03:32.199Z,2.42
2022-11-02T06:06:04.781Z,2.35
2022-11-02T06:08:36.147Z,2.00
2022-11-02T06:11:11.321Z,3.33
2022-11-02T06:13:38.931Z,2.08
2022-11-02T06:16:09.897Z,2.22
2022-11-02T06:18:38.471Z,3.28
2022-11-02T06:21:06.143Z,2.75
2022-11-02T06:23:33.280Z,2.92
2022-11-02T06:26:01.334Z,3.10
2022-11-02T06:28:29.513Z,2.40
2022-11-02T06:30:57.170Z,3.40
2022-11-02T06:33:24.499Z,2.83
2022-11-02T06:35:53.205Z,2.58
2022-11-02T06:38:22.219Z,4.00
2022-11-02T06:41:15.770Z,3.28
2022-11-02T06:43:42.872Z,2.22
2022-11-02T06:46:10.076Z,2.72
2022-11-02T06:48:37.601Z,2.88
2022-11-02T06:51:06.219Z,2.20
2022-11-02T06:53:33.599Z,3.03
2022-11-02T06:56:01.033Z,2.85
2022-11-02T06:58:28.442Z,3.22
2022-11-02T07:01:03.604Z,3.17
2022-11-02T07:03:31.359Z,2.60
2022-11-02T07:05:58.522Z,2.50
2022-11-02T07:08:26.466Z,2.42
2022-11-02T07:10:53.933Z,3.00
2022-11-02T07:13:21.401Z,3.13
2022-11-02T07:15:52.516Z,3.33
2022-11-02T07:18:19.673Z,3.25
2022-11-02T07:20:46.885Z,2.95
2022-11-02T07:23:14.076Z,2.72
2022-11-02T07:25:41.658Z,3.22
2022-11-02T07:28:08.798Z,2.50
2022-11-02T07:30:35.910Z,2.20
2022-11-02T07:33:03.397Z,2.58
2022-11-02T07:35:30.805Z,2.90
2022-11-02T07:38:02.437Z,2.58
2022-11-02T07:40:30.826Z,2.53
2022-11-02T07:43:00.096Z,2.58
2022-11-02T07:45:36.853Z,2.47
2022-11-02T07:48:04.099Z,2.58
2022-11-02T07:50:31.350Z,2.67
2022-11-02T07:52:58.808Z,3.38
2022-11-02T07:55:28.536Z,2.47
2022-11-02T07:57:58.133Z,2.70
2022-11-02T08:00:27.575Z,2.92
2022-11-02T08:02:56.083Z,2.58
2022-11-02T08:05:23.619Z,2.65
2022-11-02T08:08:02.184Z,2.63
2022-11-02T08:10:36.943Z,2.45
2022-11-02T08:13:08.614Z,3.05
2022-11-02T08:15:35.716Z,2.55
2022-11-02T08:18:14.980Z,3.33
2022-11-02T08:20:42.679Z,2.47
2022-11-02T08:23:10.985Z,2.40
2022-11-02T08:25:39.628Z,2.88
2022-11-02T08:28:08.405Z,2.33
2022-11-02T08:30:35.496Z,2.30
2022-11-02T08:33:08.213Z,2.88
2022-11-02T08:35:37.895Z,4.13
2022-11-02T08:38:05.643Z,3.22
2022-11-02T08:40:33.419Z,2.58
2022-11-02T08:43:02.691Z,2.50
2022-11-02T08:45:53.829Z,3.53
2022-11-02T08:48:18.410Z,3.00
2022-11-02T08:50:45.565Z,2.60
2022-11-02T08:53:12.550Z,3.22
2022-11-02T08:55:39.747Z,3.30
2022-11-02T08:58:07.594Z,3.17
2022-11-02T09:00:37.114Z,4.07
2022-11-02T09:03:08.166Z,3.08
2022-11-02T09:05:38.490Z,3.13
2022-11-02T09:08:08.857Z,3.67
2022-11-02T09:10:36.599Z,3.05
2022-11-02T09:13:07.311Z,3.55
2022-11-02T09:15:36.844Z,2.58
2022-11-02T09:18:05.486Z,3.95
2022-11-02T09:20:33.712Z,3.00
2022-11-02T09:23:01.061Z,3.10
2022-11-02T09:25:31.115Z,3.47
2022-11-02T09:27:58.417Z,2.55
2022-11-02T09:30:27.185Z,2.67
2022-11-02T09:33:03.698Z,2.85
2022-11-02T09:35:39.399Z,2.42
2022-11-02T09:38:07.024Z,3.08
2022-11-02T09:40:56.437Z,4.20
2022-11-02T09:43:40.784Z,3.17
2022-11-02T09:46:25.167Z,3.08
2022-11-02T09:48:59.968Z,3.17
2022-11-02T09:51:38.070Z,2.60
2022-11-02T09:54:25.748Z,2.30
2022-11-02T09:56:58.000Z,2.97
2022-11-02T09:59:26.815Z,2.88
2022-11-02T10:02:32.623Z,3.13
2022-11-02T10:05:27.426Z,3.08
2022-11-02T10:08:31.614Z,3.65
2022-11-02T10:11:08.394Z,3.17
2022-11-02T10:13:48.223Z,3.17
2022-11-02T10:16:24.617Z,3.60
2022-11-02T10:18:53.868Z,3.17
2022-11-02T10:21:27.753Z,3.55
2022-11-02T10:23:56.827Z,2.95
2022-11-02T10:26:29.235Z,3.15
2022-11-02T10:29:04.659Z,3.28
2022-11-02T10:31:34.166Z,3.97
2022-11-02T10:34:26.549Z,3.00
2022-11-02T10:36:59.717Z,3.28
2022-11-02T10:39:38.418Z,3.55
2022-11-02T10:42:18.668Z,3.05
2022-11-02T10:44:51.672Z,2.75
2022-11-02T10:47:27.482Z,3.35
2022-11-02T10:50:18.939Z,2.58
2022-11-02T10:52:46.706Z,3.17
2022-11-02T10:55:51.592Z,2.75
2022-11-02T10:58:21.532Z,2.85
2022-11-02T11:00:48.900Z,2.35
2022-11-02T11:03:18.201Z,3.65
2022-11-02T11:05:51.471Z,3.03
2022-11-02T11:08:59.741Z,3.10
2022-11-02T11:11:31.025Z,2.83
2022-11-02T11:16:55.980Z,3.03
2022-11-02T11:19:41.688Z,2.85
2022-11-02T11:28:30.545Z,2.50
2022-11-02T11:33:57.114Z,2.28
2022-11-02T11:36:31.319Z,2.92
2022-11-02T11:39:02.077Z,2.92
2022-11-02T11:41:31.496Z,2.65
2022-11-02T11:44:02.312Z,2.80
2022-11-02T11:46:48.972Z,2.40
2022-11-02T11:52:32.004Z,2.15
2022-11-02T11:55:01.829Z,2.83
2022-11-02T11:57:33.653Z,2.63
2022-11-02T12:00:05.043Z,2.55
2022-11-02T12:02:43.847Z,3.42
2022-11-02T12:05:12.840Z,2.80
2022-11-02T12:07:56.171Z,2.47
2022-11-02T12:10:38.877Z,2.70
2022-11-02T12:13:44.047Z,2.25
2022-11-02T12:16:23.077Z,2.90
2022-11-02T12:19:40.392Z,2.28
2022-11-02T12:22:17.642Z,2.47
2022-11-02T12:25:09.253Z,3.00
2022-11-02T12:27:52.331Z,2.70
2022-11-02T12:30:30.125Z,2.40
2022-11-02T12:33:22.851Z,2.15
2022-11-02T12:38:43.598Z,2.92
2022-11-02T12:41:18.573Z,1.85
2022-11-02T12:43:51.640Z,2.47
2022-11-02T12:46:38.958Z,2.72
2022-11-02T12:49:38.310Z,2.33
2022-11-02T12:52:33.745Z,2.25
2022-11-02T12:55:05.223Z,2.90
2022-11-02T12:57:37.243Z,1.83
2022-11-02T13:00:22.857Z,2.08
2022-11-02T13:03:16.599Z,2.17
2022-11-02T13:05:50.747Z,2.03
2022-11-02T13:08:29.635Z,2.00
2022-11-02T13:11:02.643Z,2.72
2022-11-02T13:13:39.162Z,1.60
2022-11-02T13:16:09.556Z,2.67
2022-11-02T13:18:51.187Z,2.20
2022-11-02T13:21:41.248Z,1.63
2022-11-02T13:24:18.653Z,2.67
2022-11-02T13:26:57.172Z,1.80
2022-11-02T13:29:47.696Z,2.03
2022-11-02T13:32:33.645Z,2.30
2022-11-02T13:35:18.200Z,2.35
2022-11-02T13:37:52.922Z,1.73
2022-11-02T13:40:27.883Z,1.83
2022-11-02T13:43:25.874Z,2.20
2022-11-02T13:46:31.533Z,1.33
2022-11-02T13:49:17.830Z,2.17
2022-11-02T13:51:51.869Z,1.98
2022-11-02T13:54:33.372Z,2.35
2022-11-02T13:57:01.512Z,1.52
2022-11-02T13:59:42.187Z,1.45
2022-11-02T14:02:17.120Z,1.55
2022-11-02T14:04:46.075Z,1.48
2022-11-02T14:07:33.403Z,1.50
2022-11-02T14:10:18.776Z,1.65
2022-11-02T14:12:49.532Z,1.80
2022-11-02T14:15:16.582Z,1.55
2022-11-02T14:17:56.474Z,1.85
2022-11-02T14:20:34.107Z,1.67
2022-11-02T14:23:12.514Z,1.40
2022-11-02T14:25:50.601Z,1.38
2022-11-02T14:28:30.313Z,1.58
2022-11-02T14:31:06.052Z,1.73
2022-11-02T14:33:51.359Z,1.85
2022-11-02T14:36:26.711Z,1.63
2022-11-02T14:38:59.874Z,1.80
2022-11-02T14:41:50.901Z,1.50
2022-11-02T14:44:51.413Z,1.45
2022-11-02T14:47:19.889Z,1.48
2022-11-02T14:49:52.347Z,1.40
2022-11-02T14:52:32.127Z,1.58
2022-11-02T14:55:05.382Z,1.75
2022-11-02T14:57:50.051Z,1.55
2022-11-02T15:00:18.936Z,1.17
2022-11-02T15:02:46.749Z,0.95
2022-11-02T15:05:24.473Z,1.23
2022-11-02T15:08:02.557Z,1.30
2022-11-02T15:10:32.209Z,1.40
2022-11-02T15:13:20.701Z,1.35
2022-11-02T15:15:50.666Z,1.35
2022-11-02T15:18:31.949Z,1.48
2022-11-02T15:21:10.885Z,0.93
2022-11-02T15:23:56.833Z,1.58
2022-11-02T15:26:29.312Z,1.67
2022-11-02T15:29:00.310Z,1.33
2022-11-02T15:31:28.725Z,2.20
2022-11-02T15:33:59.795Z,1.80
2022-11-02T15:36:38.873Z,1.30
2022-11-02T15:39:11.377Z,1.90
2022-11-02T15:41:49.470Z,1.58
2022-11-02T15:44:32.775Z,1.40
2022-11-02T15:47:52.298Z,1.42
2022-11-02T15:50:43.017Z,1.30
2022-11-02T15:53:24.000Z,1.50
2022-11-02T15:56:09.891Z,1.40
2022-11-02T15:58:39.759Z,1.42
2022-11-02T16:01:15.924Z,1.67
2022-11-02T16:03:58.913Z,1.50
2022-11-02T16:06:31.661Z,1.70
2022-11-02T16:09:03.364Z,1.45
2022-11-02T16:11:30.477Z,1.67
2022-11-02T16:14:18.058Z,2.03
2022-11-02T16:16:49.741Z,1.67
2022-11-02T16:19:21.632Z,1.35
2022-11-02T16:21:49.859Z,2.70
2022-11-02T16:24:18.135Z,1.42
2022-11-02T16:26:46.557Z,2.03
2022-11-02T16:29:31.501Z,1.48
2022-11-02T16:31:58.918Z,1.58
2022-11-02T16:34:33.148Z,1.45
2022-11-02T16:37:10.126Z,1.60
2022-11-02T16:39:42.126Z,1.70
2022-11-02T16:42:23.103Z,1.90
2022-11-02T16:45:01.237Z,1.73
2022-11-02T16:47:38.238Z,1.70
2022-11-02T16:50:23.119Z,1.52
2022-11-02T16:52:58.895Z,1.65
2022-11-02T16:55:39.442Z,1.80
2022-11-02T16:58:13.646Z,1.73
2022-11-02T17:00:52.642Z,2.08
2022-11-02T17:03:24.707Z,2.85
2022-11-02T17:05:53.027Z,1.90
2022-11-02T17:08:28.318Z,1.88
2022-11-02T17:10:57.606Z,2.25
2022-11-02T17:13:27.033Z,2.25
2022-11-02T17:15:56.925Z,2.47
2022-11-02T17:18:29.203Z,2.33
2022-11-02T17:23:45.535Z,2.33
2022-11-02T17:26:24.921Z,2.20
2022-11-02T17:28:55.098Z,2.28
2022-11-02T17:31:24.733Z,2.25
2022-11-02T17:33:52.270Z,2.17
2022-11-02T17:36:19.669Z,2.22
2022-11-02T17:38:46.781Z,2.33
2022-11-02T17:41:35.912Z,2.20
2022-11-02T17:44:03.389Z,2.25
2022-11-02T17:46:30.747Z,2.58
2022-11-02T17:48:57.805Z,2.38
2022-11-02T17:51:25.921Z,3.40
2022-11-02T17:53:53.089Z,2.15
2022-11-02T17:56:20.103Z,2.22
2022-11-02T17:58:47.030Z,2.30
2022-11-02T18:01:14.364Z,2.45
2022-11-02T18:03:42.068Z,2.28
2022-11-02T18:06:09.038Z,2.35
2022-11-02T18:08:56.234Z,2.55
2022-11-02T18:11:26.197Z,2.55
2022-11-02T18:13:53.708Z,2.20
2022-11-02T18:16:20.841Z,1.90
2022-11-02T18:18:47.956Z,2.30
2022-11-02T18:21:15.108Z,2.00
2022-11-02T18:23:42.033Z,2.83
2022-11-02T18:26:12.790Z,3.95
2022-11-02T18:28:40.133Z,5.25
2022-11-02T18:31:07.993Z,6.45
2022-11-02T18:33:35.243Z,7.80
2022-11-02T18:36:07.156Z,8.45
2022-11-02T18:38:34.741Z,8.73
2022-11-02T18:41:26.910Z,8.35
2022-11-02T18:44:02.181Z,6.85
2022-11-02T18:46:32.162Z,5.22
2022-11-02T18:48:59.567Z,4.47
2022-11-02T18:51:26.945Z,3.92
2022-11-02T18:54:04.473Z,3.72
2022-11-02T18:56:31.729Z,3.20
2022-11-02T18:58:59.046Z,3.00
2022-11-02T19:01:27.104Z,2.92
2022-11-02T19:03:56.835Z,2.85
2022-11-02T19:06:43.093Z,2.60
2022-11-02T19:09:18.220Z,2.40
2022-11-02T19:11:54.329Z,3.15
2022-11-02T19:14:23.307Z,2.45
2022-11-02T19:16:50.353Z,2.63
2022-11-02T19:19:17.271Z,2.85
2022-11-02T19:21:44.316Z,2.83
2022-11-02T19:24:11.577Z,2.80
2022-11-02T19:26:39.043Z,2.95
2022-11-02T19:29:07.051Z,2.33
2022-11-02T19:31:35.291Z,4.82
2022-11-02T19:34:02.750Z,2.60
2022-11-02T19:36:29.830Z,2.42
2022-11-02T19:38:58.441Z,3.03
2022-11-02T19:41:25.897Z,3.20
2022-11-02T19:43:53.249Z,3.05
2022-11-02T19:46:22.370Z,3.38
2022-11-02T19:48:50.139Z,3.30
2022-11-02T19:51:22.181Z,3.47
2022-11-02T19:53:54.203Z,3.72
2022-11-02T19:56:22.391Z,2.83
2022-11-02T19:58:51.032Z,2.38
2022-11-02T20:01:20.714Z,3.00
2022-11-02T20:03:48.210Z,3.20
2022-11-02T20:06:23.525Z,2.97
2022-11-02T20:08:55.768Z,2.90
2022-11-02T20:11:24.337Z,3.28
2022-11-02T20:13:52.153Z,2.80
2022-11-02T20:16:20.048Z,1.75
2022-11-02T20:18:50.356Z,3.20
2022-11-02T20:21:20.376Z,2.47
2022-11-02T20:23:48.188Z,2.40
2022-11-02T20:26:23.982Z,2.72
2022-11-02T20:28:52.138Z,2.50
2022-11-02T20:31:24.108Z,3.33
2022-11-02T20:33:51.528Z,2.40
2022-11-02T20:36:18.641Z,2.72
2022-11-02T20:38:46.129Z,3.17
2022-11-02T20:41:15.352Z,2.85
2022-11-02T20:43:44.757Z,2.67
2022-11-02T20:46:36.549Z,2.92
2022-11-02T20:49:13.934Z,3.57
2022-11-02T20:51:52.514Z,2.10
2022-11-02T20:54:20.279Z,2.88
2022-11-02T20:56:48.250Z,3.33
2022-11-02T20:59:15.810Z,3.17
2022-11-02T21:01:43.094Z,3.65
2022-11-02T21:04:15.267Z,3.40
2022-11-02T21:06:46.790Z,3.92
2022-11-02T21:09:13.662Z,4.15
2022-11-02T21:11:59.127Z,4.32
2022-11-02T21:14:26.264Z,3.78
2022-11-02T21:16:53.277Z,3.33
2022-11-02T21:19:20.523Z,3.83
2022-11-02T21:21:47.616Z,3.20
2022-11-02T21:24:14.738Z,3.80
2022-11-02T21:26:42.124Z,4.68
2022-11-02T21:29:10.046Z,4.63
2022-11-02T21:31:37.456Z,5.03
2022-11-02T21:34:05.017Z,4.03
2022-11-02T21:36:32.308Z,3.88
2022-11-02T21:38:59.311Z,2.90
2022-11-02T21:41:29.385Z,2.92
2022-11-02T21:43:56.965Z,3.63
2022-11-02T21:46:25.715Z,3.10
2022-11-02T21:48:54.647Z,3.15
2022-11-02T21:51:22.898Z,3.83
2022-11-02T21:53:50.804Z,3.40
2022-11-02T21:56:25.592Z,3.08
2022-11-02T21:58:53.910Z,2.53
2022-11-02T22:01:45.540Z,5.38
2022-11-02T22:04:15.844Z,3.05
2022-11-02T22:06:43.314Z,3.03
2022-11-02T22:09:12.631Z,2.80
2022-11-02T22:11:40.386Z,2.72
2022-11-02T22:14:07.471Z,3.13
2022-11-02T22:16:43.008Z,2.67
2022-11-02T22:19:14.487Z,2.83
2022-11-02T22:21:43.633Z,2.63
2022-11-02T22:24:11.411Z,2.60
2022-11-02T22:26:39.618Z,4.30
2022-11-02T22:29:07.615Z,2.70
2022-11-02T22:31:38.722Z,2.70
2022-11-02T22:34:08.339Z,2.63
2022-11-02T22:36:37.268Z,3.38
2022-11-02T22:39:06.182Z,3.40
2022-11-02T22:41:40.320Z,3.40
2022-11-02T22:44:11.804Z,3.22
2022-11-02T22:46:44.221Z,3.10
2022-11-02T22:49:14.027Z,3.20
2022-11-02T22:51:50.813Z,4.00
2022-11-02T22:54:19.690Z,3.15
2022-11-02T22:56:48.491Z,3.13
2022-11-02T22:59:16.477Z,2.92
2022-11-02T23:01:43.929Z,3.13
2022-11-02T23:04:12.251Z,4.25
2022-11-02T23:06:39.552Z,2.92
2022-11-02T23:09:07.280Z,3.65
2022-11-02T23:11:37.356Z,3.63
2022-11-02T23:14:12.909Z,2.92
2022-11-02T23:16:47.152Z,2.72
2022-11-02T23:19:27.223Z,3.03
2022-11-02T23:22:15.231Z,3.67
2022-11-02T23:25:03.559Z,4.68
2022-11-02T23:27:32.171Z,3.92
2022-11-02T23:30:18.054Z,3.58
2022-11-02T23:32:45.259Z,4.38
2022-11-02T23:35:30.662Z,3.60
2022-11-02T23:38:03.404Z,4.22
2022-11-02T23:40:30.678Z,4.88
2022-11-02T23:42:57.688Z,4.32
2022-11-02T23:45:24.666Z,4.55
2022-11-02T23:47:57.493Z,3.65
2022-11-02T23:50:44.893Z,4.35
2022-11-02T23:53:32.038Z,3.28
2022-11-02T23:56:18.714Z,3.22
2022-11-02T23:58:46.500Z,3.05
